Rechercher aéroport 
image banner adimage banner adimage banner ad
image banner ad

KNUC - San Clemente Island Nalf

Situé à San Clemente Island, United States

ICAO - NUC, IATA -

Données fournies par Airmate  

Information générale

Coordonnées: N33°1'22" W118°35'19"
Élévation : 184 feet MSL.
Variation magnétique : 12° East
Voir autres Aéroports à California

Données opérationnelles

Special qualification required
Heure actuelle UTC:
Heure actuelle locale:
Météo
METAR: KNUC 291456Z 28011KT 10SM BKN007 18/16 A2997 RMK AO2 SLP146 T01830161 50005 $
TAF: TAF KNUC 2915/3015 29012KT 9999 BKN007 QNH2993INS TEMPO 2915/2921 29015G25KT SCT008 FM292200 29018KT 9999 FEW010 QNH2995INS TEMPO 2922/3004 29020G25KT BKN010 FM300400 29015KT 9999 BKN006 QNH2993INS TEMPO 3004/3010 29015G25KT SCT006 T22/2923Z T17/3013Z FS30167
Voir NOTAMs / SUP AIP / TFR affectant cet aéroport [VIEW]
Fréquences de communication: [VIEW]

Pistes:

Identifiant RWYQFULongueur (ft)Largeur (ft)SurfaceLDA (ft)
069301200CONC
249301200CONC

Coordonnées de l'aéroport

Adresse: San Clemente Island United States

Vue satellite de KNUC